createdAt,value
2019-04-03T00:00:14.015Z,10.07
2019-04-03T00:02:42.649Z,8.68
2019-04-03T00:05:11.447Z,8.97
2019-04-03T00:07:40.041Z,9.10
2019-04-03T00:10:09.079Z,8.97
2019-04-03T00:12:40.437Z,8.70
2019-04-03T00:15:09.000Z,9.14
2019-04-03T00:17:37.559Z,9.03
2019-04-03T00:20:07.755Z,9.35
2019-04-03T00:22:37.722Z,9.15
2019-04-03T00:25:07.936Z,8.93
2019-04-03T00:27:36.544Z,9.03
2019-04-03T00:30:07.317Z,9.20
2019-04-03T00:32:37.983Z,9.40
2019-04-03T00:35:10.451Z,9.38
2019-04-03T00:37:39.022Z,8.43
2019-04-03T00:40:08.183Z,9.03
2019-04-03T00:42:37.011Z,9.58
2019-04-03T00:45:07.044Z,8.95
2019-04-03T00:47:35.600Z,9.35
2019-04-03T00:50:06.689Z,9.28
2019-04-03T00:52:35.588Z,9.63
2019-04-03T00:55:05.199Z,9.80
2019-04-03T00:57:33.764Z,9.53
2019-04-03T01:00:02.394Z,8.80
2019-04-03T01:02:30.950Z,9.85
2019-04-03T01:04:59.551Z,9.33
2019-04-03T01:07:29.259Z,10.45
2019-04-03T01:09:59.605Z,9.88
2019-04-03T01:12:30.492Z,9.78
2019-04-03T01:15:02.124Z,9.25
2019-04-03T01:17:29.105Z,10.00
2019-04-03T01:19:57.652Z,9.30
2019-04-03T01:22:26.229Z,8.75
2019-04-03T01:24:54.723Z,9.58
2019-04-03T01:27:23.264Z,10.23
2019-04-03T01:29:51.874Z,10.58
2019-04-03T01:32:20.348Z,9.65
2019-04-03T01:34:49.073Z,9.68
2019-04-03T01:37:18.998Z,9.25
2019-04-03T01:39:49.019Z,9.63
2019-04-03T01:42:18.107Z,9.83
2019-04-03T01:44:46.994Z,9.37
2019-04-03T01:47:15.546Z,8.93
2019-04-03T01:49:44.047Z,10.18
2019-04-03T01:52:12.610Z,9.58
2019-04-03T01:54:41.357Z,8.73
2019-04-03T01:57:09.970Z,9.00
2019-04-03T01:59:38.503Z,9.03
2019-04-03T02:02:08.474Z,8.70
2019-04-03T02:04:37.658Z,9.95
2019-04-03T02:07:06.622Z,9.50
2019-04-03T02:09:35.218Z,8.38
2019-04-03T02:12:04.219Z,8.50
2019-04-03T02:14:32.762Z,8.65
2019-04-03T02:17:01.305Z,8.80
2019-04-03T02:19:29.858Z,8.50
2019-04-03T02:21:59.061Z,8.75
2019-04-03T02:24:27.739Z,8.60
2019-04-03T02:26:56.277Z,8.50
2019-04-03T02:29:24.816Z,8.23
2019-04-03T02:31:53.504Z,8.25
2019-04-03T02:34:22.031Z,9.30
2019-04-03T02:36:50.615Z,8.60
2019-04-03T02:39:19.162Z,9.55
2019-04-03T02:41:47.635Z,8.70
2019-04-03T02:44:18.702Z,9.30
2019-04-03T02:46:46.484Z,9.50
2019-04-03T02:49:15.137Z,8.63
2019-04-03T02:51:45.462Z,8.70
2019-04-03T02:54:17.095Z,8.95
2019-04-03T02:56:46.485Z,8.62
2019-04-03T02:59:15.022Z,8.93
2019-04-03T03:01:43.751Z,8.25
2019-04-03T03:04:12.389Z,8.23
2019-04-03T03:06:41.086Z,8.45
2019-04-03T03:09:12.997Z,8.25
2019-04-03T03:11:41.789Z,7.65
2019-04-03T03:14:11.690Z,8.67
2019-04-03T03:16:40.424Z,7.37
2019-04-03T03:19:09.416Z,8.15
2019-04-03T03:21:38.783Z,8.05
2019-04-03T03:24:07.653Z,7.78
2019-04-03T03:26:37.813Z,7.75
2019-04-03T03:29:16.589Z,8.65
2019-04-03T03:32:01.989Z,7.80
2019-04-03T03:34:08.893Z,8.43
2019-04-03T03:36:38.808Z,8.65
2019-04-03T03:39:10.373Z,8.30
2019-04-03T03:41:38.321Z,8.83
2019-04-03T03:44:09.553Z,8.65
2019-04-03T03:46:37.635Z,9.58
2019-04-03T03:49:07.104Z,10.68
2019-04-03T03:51:36.036Z,9.88
2019-04-03T03:54:05.243Z,10.08
2019-04-03T03:56:34.082Z,9.35
2019-04-03T03:59:03.750Z,8.45
2019-04-03T04:01:32.874Z,9.23
2019-04-03T04:04:01.679Z,8.43
2019-04-03T04:06:34.970Z,9.75
2019-04-03T04:09:01.363Z,9.23
2019-04-03T04:11:31.260Z,12.20
2019-04-03T04:14:01.540Z,11.14
2019-04-03T04:16:30.333Z,11.40
2019-04-03T04:18:58.965Z,12.18
2019-04-03T04:21:27.486Z,11.88
2019-04-03T04:23:57.315Z,13.70
2019-04-03T04:26:26.439Z,10.68
2019-04-03T04:28:55.208Z,19.77
2019-04-03T04:31:23.871Z,18.17
2019-04-03T04:33:52.329Z,13.25
2019-04-03T04:36:23.531Z,8.70
2019-04-03T04:38:51.802Z,7.85
2019-04-03T04:41:20.418Z,8.03
2019-04-03T04:43:48.966Z,8.25
2019-04-03T04:46:17.522Z,8.08
2019-04-03T04:48:46.062Z,8.20
2019-04-03T04:51:14.834Z,8.13
2019-04-03T04:53:43.454Z,8.25
2019-04-03T04:56:12.098Z,8.80
2019-04-03T04:58:42.525Z,8.80
2019-04-03T05:01:11.107Z,8.08
2019-04-03T05:03:39.739Z,8.43
2019-04-03T05:06:08.414Z,8.48
2019-04-03T05:08:36.933Z,8.30
2019-04-03T05:11:07.264Z,7.97
2019-04-03T05:13:35.806Z,8.58
2019-04-03T05:16:04.415Z,7.94
2019-04-03T05:18:32.972Z,7.85
2019-04-03T05:21:02.025Z,8.95
2019-04-03T05:23:30.820Z,8.40
2019-04-03T05:26:01.910Z,9.05
2019-04-03T05:28:29.782Z,9.08
2019-04-03T05:30:58.327Z,8.85
2019-04-03T05:33:27.016Z,9.83
2019-04-03T05:35:55.742Z,8.93
2019-04-03T05:38:24.422Z,8.93
2019-04-03T05:40:56.106Z,8.25
2019-04-03T05:43:23.671Z,8.68
2019-04-03T05:45:52.478Z,8.63
2019-04-03T05:48:21.100Z,9.25
2019-04-03T05:50:49.752Z,8.20
2019-04-03T05:53:18.313Z,8.55
2019-04-03T05:55:47.087Z,8.67
2019-04-03T05:58:16.680Z,8.58
2019-04-03T06:00:45.490Z,9.18
2019-04-03T06:03:14.736Z,8.95
2019-04-03T06:05:44.037Z,9.18
2019-04-03T06:08:13.243Z,9.40
2019-04-03T06:10:41.882Z,9.90
2019-04-03T06:13:10.614Z,9.67
2019-04-03T06:15:39.215Z,9.43
2019-04-03T06:18:07.762Z,9.23
2019-04-03T06:20:36.463Z,8.48
2019-04-03T06:23:05.298Z,8.75
2019-04-03T06:25:34.007Z,9.98
2019-04-03T06:28:02.643Z,9.15
2019-04-03T06:30:31.799Z,9.33
2019-04-03T06:33:01.967Z,9.78
2019-04-03T06:35:30.960Z,10.78
2019-04-03T06:37:59.650Z,10.72
2019-04-03T06:40:28.210Z,9.57
2019-04-03T06:42:56.794Z,9.20
2019-04-03T06:45:26.985Z,9.50
2019-04-03T06:47:55.634Z,10.13
2019-04-03T06:50:24.177Z,10.25
2019-04-03T06:52:53.122Z,10.03
2019-04-03T06:55:24.704Z,10.35
2019-04-03T06:57:52.514Z,9.75
2019-04-03T07:00:21.401Z,10.23
2019-04-03T07:02:50.121Z,10.50
2019-04-03T07:05:18.722Z,9.63
2019-04-03T07:07:47.458Z,10.05
2019-04-03T07:10:25.385Z,10.48
2019-04-03T07:12:46.414Z,9.68
2019-04-03T07:15:16.664Z,9.70
2019-04-03T07:17:45.182Z,10.32
2019-04-03T07:20:18.802Z,10.63
2019-04-03T07:22:44.749Z,11.12
2019-04-03T07:25:14.146Z,10.00
2019-04-03T07:27:42.802Z,10.45
2019-04-03T07:30:13.181Z,10.10
2019-04-03T07:32:41.808Z,9.95
2019-04-03T07:35:10.521Z,10.60
2019-04-03T07:37:39.438Z,10.48
2019-04-03T07:40:08.191Z,10.78
2019-04-03T07:42:37.120Z,10.45
2019-04-03T07:45:07.830Z,10.25
2019-04-03T07:47:36.619Z,10.43
2019-04-03T07:50:10.308Z,10.85
2019-04-03T07:52:39.164Z,10.65
2019-04-03T07:55:07.958Z,10.38
2019-04-03T07:57:40.355Z,10.70
2019-04-03T08:00:27.239Z,11.08
2019-04-03T08:02:55.872Z,11.40
2019-04-03T08:05:24.513Z,11.63
2019-04-03T08:07:53.059Z,10.13
2019-04-03T08:10:21.865Z,10.72
2019-04-03T08:12:51.375Z,9.94
2019-04-03T08:15:20.000Z,11.12
2019-04-03T08:17:49.899Z,11.22
2019-04-03T08:20:19.983Z,11.30
2019-04-03T08:22:49.371Z,10.80
2019-04-03T08:25:17.999Z,11.25
2019-04-03T08:27:46.658Z,10.82
2019-04-03T08:30:15.748Z,11.57
2019-04-03T08:32:47.341Z,11.48
2019-04-03T08:35:21.647Z,10.63
2019-04-03T08:37:45.845Z,10.53
2019-04-03T08:40:14.623Z,10.90
2019-04-03T08:42:43.333Z,10.50
2019-04-03T08:45:12.646Z,10.60
2019-04-03T08:47:45.220Z,11.48
2019-04-03T08:50:12.232Z,10.60
2019-04-03T08:52:40.988Z,10.40
2019-04-03T08:55:12.922Z,11.40
2019-04-03T08:57:40.984Z,11.13
2019-04-03T09:00:11.916Z,10.60
2019-04-03T09:02:50.225Z,10.95
2019-04-03T09:05:19.848Z,9.98
2019-04-03T09:07:48.860Z,11.57
2019-04-03T09:10:17.570Z,10.78
2019-04-03T09:12:46.477Z,10.90
2019-04-03T09:15:15.330Z,10.08
2019-04-03T09:17:44.060Z,11.50
2019-04-03T09:20:13.818Z,10.70
2019-04-03T09:22:42.621Z,11.53
2019-04-03T09:25:13.755Z,10.53
2019-04-03T09:27:42.662Z,10.25
2019-04-03T09:30:15.866Z,11.20
2019-04-03T09:32:43.588Z,10.63
2019-04-03T09:35:12.500Z,10.63
2019-04-03T09:37:41.316Z,10.65
2019-04-03T09:40:10.210Z,10.80
2019-04-03T09:42:38.807Z,11.08
2019-04-03T09:45:08.347Z,10.90
2019-04-03T09:47:37.411Z,10.78
2019-04-03T09:50:09.878Z,10.60
2019-04-03T09:52:46.091Z,10.98
2019-04-03T09:55:08.674Z,11.40
2019-04-03T09:57:37.280Z,11.47
2019-04-03T10:00:11.200Z,10.05
2019-04-03T10:02:40.281Z,11.10
2019-04-03T10:05:09.209Z,10.95
2019-04-03T10:07:38.248Z,10.70
2019-04-03T10:10:09.910Z,10.65
2019-04-03T10:12:38.594Z,10.35
2019-04-03T10:15:07.773Z,10.83
2019-04-03T10:17:38.350Z,9.45
2019-04-03T10:20:08.386Z,9.23
2019-04-03T10:22:36.948Z,9.80
2019-04-03T10:25:07.790Z,11.13
2019-04-03T10:27:36.922Z,10.93
2019-04-03T10:30:12.191Z,10.68
2019-04-03T10:32:40.875Z,11.73
2019-04-03T10:35:10.647Z,10.54
2019-04-03T10:37:39.348Z,10.25
2019-04-03T10:40:08.232Z,10.10
2019-04-03T10:42:36.940Z,10.48
2019-04-03T10:45:24.782Z,9.98
2019-04-03T10:48:13.405Z,9.95
2019-04-03T10:50:42.115Z,10.40
2019-04-03T10:53:10.662Z,9.85
2019-04-03T10:55:39.350Z,10.78
2019-04-03T10:58:08.548Z,11.03
2019-04-03T11:00:38.219Z,10.43
2019-04-03T11:03:07.398Z,11.38
2019-04-03T11:05:36.355Z,10.35
2019-04-03T11:08:05.000Z,10.10
2019-04-03T11:10:33.650Z,10.43
2019-04-03T11:13:03.298Z,10.32
2019-04-03T11:15:32.587Z,10.32
2019-04-03T11:18:01.707Z,10.33
2019-04-03T11:20:30.608Z,9.80
2019-04-03T11:23:05.331Z,9.78
2019-04-03T11:25:29.574Z,10.68
2019-04-03T11:27:58.225Z,10.28
2019-04-03T11:30:27.491Z,10.35
2019-04-03T11:32:56.433Z,10.08
2019-04-03T11:35:27.124Z,10.05
2019-04-03T11:37:56.184Z,9.53
2019-04-03T11:40:26.797Z,9.65
2019-04-03T11:42:55.510Z,9.35
2019-04-03T11:45:24.272Z,9.30
2019-04-03T11:47:52.804Z,9.20
2019-04-03T11:50:24.728Z,9.73
2019-04-03T11:52:52.727Z,9.23
2019-04-03T11:55:21.302Z,9.23
2019-04-03T11:57:50.008Z,9.65
2019-04-03T12:00:23.347Z,9.25
2019-04-03T12:02:52.345Z,9.25
2019-04-03T12:05:21.616Z,9.43
2019-04-03T12:07:50.371Z,9.70
2019-04-03T12:10:19.309Z,9.48
2019-04-03T12:12:48.088Z,10.43
2019-04-03T12:15:20.082Z,8.68
2019-04-03T12:17:48.648Z,9.47
2019-04-03T12:20:18.250Z,9.35
2019-04-03T12:22:46.961Z,15.75
2019-04-03T12:25:15.605Z,8.93
2019-04-03T12:27:45.995Z,9.33
2019-04-03T12:30:15.127Z,9.80
2019-04-03T12:32:48.596Z,9.98
2019-04-03T12:35:14.334Z,7.90
2019-04-03T12:37:42.979Z,9.20
2019-04-03T12:40:12.798Z,10.00
2019-04-03T12:42:42.255Z,10.75
2019-04-03T12:45:11.235Z,10.40
2019-04-03T12:47:42.829Z,9.68
2019-04-03T12:50:12.227Z,8.83
2019-04-03T12:52:43.391Z,10.00
2019-04-03T12:55:11.666Z,9.48
2019-04-03T12:57:40.365Z,9.70
2019-04-03T13:00:29.801Z,10.00
2019-04-03T13:02:58.497Z,9.58
2019-04-03T13:05:27.483Z,10.13
2019-04-03T13:07:56.025Z,9.33
2019-04-03T13:10:24.641Z,10.60
2019-04-03T13:12:55.860Z,10.27
2019-04-03T13:15:23.700Z,10.08
2019-04-03T13:17:52.337Z,9.73
2019-04-03T13:20:21.334Z,9.45
2019-04-03T13:22:49.997Z,12.10
2019-04-03T13:25:20.603Z,11.28
2019-04-03T13:27:49.394Z,13.18
2019-04-03T13:30:18.815Z,11.60
2019-04-03T13:32:57.489Z,11.10
2019-04-03T13:35:18.050Z,10.93
2019-04-03T13:37:48.979Z,10.85
2019-04-03T13:40:17.897Z,10.70
2019-04-03T13:42:49.271Z,12.78
2019-04-03T13:45:18.335Z,11.20
2019-04-03T13:47:47.170Z,9.85
2019-04-03T13:50:16.104Z,10.85
2019-04-03T13:52:48.459Z,10.75
2019-04-03T13:55:15.519Z,10.08
2019-04-03T13:57:44.186Z,13.22
2019-04-03T14:00:21.189Z,9.95
2019-04-03T14:02:46.003Z,10.25
2019-04-03T14:05:14.499Z,10.20
2019-04-03T14:07:43.134Z,10.88
2019-04-03T14:10:12.077Z,10.05
2019-04-03T14:12:44.202Z,9.83
2019-04-03T14:15:11.207Z,10.48
2019-04-03T14:17:39.821Z,9.95
2019-04-03T14:20:10.786Z,10.23
2019-04-03T14:22:39.529Z,10.32
2019-04-03T14:25:18.127Z,10.10
2019-04-03T14:27:38.473Z,10.28
2019-04-03T14:30:11.162Z,10.67
2019-04-03T14:32:39.974Z,10.68
2019-04-03T14:35:41.394Z,10.52
2019-04-03T14:37:40.859Z,10.15
2019-04-03T14:40:11.890Z,10.96
2019-04-03T14:42:40.895Z,10.65
2019-04-03T14:45:13.390Z,10.40
2019-04-03T14:47:40.715Z,10.32
2019-04-03T14:50:10.548Z,10.60
2019-04-03T14:52:39.797Z,10.33
2019-04-03T14:55:20.310Z,10.65
2019-04-03T14:57:39.268Z,11.10
2019-04-03T15:00:24.787Z,11.03
2019-04-03T15:02:41.314Z,9.93
2019-04-03T15:05:11.931Z,10.20
2019-04-03T15:07:40.605Z,9.90
2019-04-03T15:10:09.662Z,10.72
2019-04-03T15:12:39.851Z,10.38
2019-04-03T15:15:09.628Z,10.78
2019-04-03T15:17:38.840Z,10.38
2019-04-03T15:20:09.552Z,11.10
2019-04-03T15:22:38.237Z,10.10
2019-04-03T15:25:07.489Z,11.65
2019-04-03T15:27:36.363Z,15.83
2019-04-03T15:30:10.052Z,11.75
2019-04-03T15:32:37.737Z,11.12
2019-04-03T15:35:08.141Z,11.75
2019-04-03T15:37:39.926Z,11.73
2019-04-03T15:40:08.080Z,12.05
2019-04-03T15:42:39.803Z,9.73
2019-04-03T15:45:08.924Z,11.50
2019-04-03T15:47:41.808Z,11.05
2019-04-03T15:50:08.850Z,10.68
2019-04-03T15:52:37.472Z,11.63
2019-04-03T15:55:10.845Z,11.88
2019-04-03T15:57:40.703Z,11.40
2019-04-03T16:00:12.565Z,11.57
2019-04-03T16:02:44.893Z,12.27
2019-04-03T16:05:12.039Z,11.85
2019-04-03T16:08:00.151Z,12.30
2019-04-03T16:10:29.148Z,12.23
2019-04-03T16:12:58.107Z,15.40
2019-04-03T16:15:26.970Z,16.65
2019-04-03T16:17:55.503Z,18.17
2019-04-03T16:20:24.129Z,19.48
2019-04-03T16:23:23.637Z,12.30
2019-04-03T16:29:01.150Z,15.83
2019-04-03T16:34:45.174Z,19.90
2019-04-03T16:37:13.979Z,13.45
2019-04-03T16:39:42.583Z,15.38
2019-04-03T16:42:11.346Z,16.42
2019-04-03T16:53:27.482Z,19.37
2019-04-03T16:55:56.350Z,21.65
2019-04-03T16:58:27.025Z,16.02
2019-04-03T17:00:56.005Z,34.55
2019-04-03T17:03:25.194Z,15.25
2019-04-03T17:05:55.340Z,16.85
2019-04-03T17:08:25.973Z,20.20
2019-04-03T17:10:54.230Z,33.98
2019-04-03T17:13:22.842Z,25.60
2019-04-03T17:15:51.434Z,14.40
2019-04-03T17:18:19.998Z,19.42
2019-04-03T17:20:50.555Z,16.58
2019-04-03T17:23:20.122Z,19.70
2019-04-03T17:25:50.894Z,18.95
2019-04-03T17:28:19.081Z,14.73
2019-04-03T17:30:49.899Z,14.05
2019-04-03T17:33:17.909Z,13.43
2019-04-03T17:35:48.321Z,15.28
2019-04-03T17:38:16.785Z,15.98
2019-04-03T17:40:45.343Z,15.38
2019-04-03T17:43:16.878Z,15.30
2019-04-03T17:45:46.174Z,20.62
2019-04-03T17:48:14.662Z,16.20
2019-04-03T17:50:43.222Z,18.55
2019-04-03T17:53:11.900Z,19.50
2019-04-03T17:55:41.420Z,24.57
2019-04-03T17:58:10.720Z,21.50
2019-04-03T18:00:39.440Z,26.73
2019-04-03T18:03:08.857Z,36.93
2019-04-03T18:05:37.454Z,33.08
2019-04-03T18:08:06.623Z,26.50
2019-04-03T18:10:35.187Z,23.18
2019-04-03T18:13:03.822Z,20.77
2019-04-03T18:15:33.025Z,19.40
2019-04-03T18:18:02.830Z,20.60
2019-04-03T18:20:31.964Z,21.75
2019-04-03T18:23:00.632Z,24.90
2019-04-03T18:25:29.369Z,17.50
2019-04-03T18:27:58.081Z,25.70
2019-04-03T18:30:27.116Z,22.37
2019-04-03T18:32:55.605Z,19.80
2019-04-03T18:35:26.358Z,15.37
2019-04-03T18:37:55.007Z,15.53
2019-04-03T18:40:23.732Z,15.50
2019-04-03T18:42:52.530Z,14.43
2019-04-03T18:45:25.611Z,15.18
2019-04-03T18:47:51.519Z,15.87
2019-04-03T18:50:20.359Z,14.80
2019-04-03T18:52:49.174Z,25.68
2019-04-03T18:55:17.871Z,29.35
2019-04-03T18:57:49.528Z,56.23
2019-04-03T19:00:19.305Z,40.30
2019-04-03T19:02:48.009Z,42.25
2019-04-03T19:05:16.718Z,23.77
2019-04-03T19:07:46.837Z,28.10
2019-04-03T19:10:18.079Z,27.22
2019-04-03T19:12:46.143Z,57.65
2019-04-03T19:15:15.091Z,67.08
2019-04-03T19:17:43.735Z,23.80
2019-04-03T19:20:12.432Z,63.92
2019-04-03T19:22:41.107Z,45.70
2019-04-03T19:25:10.108Z,22.25
2019-04-03T19:27:38.725Z,32.90
2019-04-03T19:30:08.488Z,31.93
2019-04-03T19:32:37.162Z,38.73
2019-04-03T19:35:09.497Z,32.38
2019-04-03T19:37:38.073Z,24.05
2019-04-03T19:40:09.731Z,22.85
2019-04-03T19:42:38.211Z,23.32
2019-04-03T19:45:08.081Z,24.07
2019-04-03T19:47:37.694Z,31.10
2019-04-03T19:50:18.730Z,15.10
2019-04-03T19:52:47.320Z,14.30
2019-04-03T19:55:15.940Z,15.13
2019-04-03T19:57:44.669Z,15.83
2019-04-03T20:00:14.807Z,14.33
2019-04-03T20:02:43.705Z,15.05
2019-04-03T20:05:12.428Z,15.03
2019-04-03T20:07:41.217Z,19.85
2019-04-03T20:10:11.009Z,26.45
2019-04-03T20:12:39.791Z,29.55
2019-04-03T20:15:09.128Z,14.95
2019-04-03T20:17:37.771Z,13.10
2019-04-03T20:20:07.668Z,13.60
2019-04-03T20:22:37.866Z,12.98
2019-04-03T20:25:07.478Z,12.20
2019-04-03T20:27:36.184Z,13.75
2019-04-03T20:30:09.266Z,12.70
2019-04-03T20:32:40.038Z,12.53
2019-04-03T20:35:09.747Z,12.52
2019-04-03T20:37:40.521Z,11.68
2019-04-03T20:40:08.980Z,11.95
2019-04-03T20:42:40.788Z,12.13
2019-04-03T20:45:08.378Z,11.53
2019-04-03T20:47:37.009Z,11.03
2019-04-03T20:50:07.765Z,11.78
2019-04-03T20:52:36.503Z,11.70
2019-04-03T20:55:06.717Z,10.88
2019-04-03T20:57:35.203Z,12.10
2019-04-03T21:00:09.668Z,11.00
2019-04-03T21:02:41.163Z,11.38
2019-04-03T21:05:08.565Z,11.03
2019-04-03T21:07:37.388Z,11.68
2019-04-03T21:10:09.342Z,11.20
2019-04-03T21:12:37.964Z,10.85
2019-04-03T21:15:09.055Z,11.25
2019-04-03T21:17:39.292Z,11.33
2019-04-03T21:20:08.110Z,11.48
2019-04-03T21:22:36.706Z,11.30
2019-04-03T21:25:06.882Z,10.47
2019-04-03T21:27:35.421Z,11.35
2019-04-03T21:30:07.164Z,11.53
2019-04-03T21:32:35.708Z,11.33
2019-04-03T21:35:05.211Z,11.18
2019-04-03T21:37:35.706Z,11.80
2019-04-03T21:40:05.350Z,11.45
2019-04-03T21:42:34.286Z,10.72
2019-04-03T21:45:07.234Z,10.88
2019-04-03T21:47:33.620Z,9.97
2019-04-03T21:50:03.713Z,11.30
2019-04-03T21:52:32.542Z,11.90
2019-04-03T21:55:01.164Z,11.00
2019-04-03T21:57:29.657Z,10.63
2019-04-03T21:59:58.328Z,10.25
2019-04-03T22:02:26.898Z,10.03
2019-04-03T22:04:55.385Z,10.50
2019-04-03T22:07:23.902Z,11.43
2019-04-03T22:09:54.138Z,11.07
2019-04-03T22:12:22.687Z,11.53
2019-04-03T22:14:51.280Z,11.57
2019-04-03T22:17:21.804Z,9.75
2019-04-03T22:19:51.069Z,9.80
2019-04-03T22:22:19.641Z,9.78
2019-04-03T22:24:48.490Z,10.75
2019-04-03T22:27:17.120Z,10.80
2019-04-03T22:29:45.692Z,10.50
2019-04-03T22:32:14.357Z,9.80
2019-04-03T22:34:43.091Z,10.80
2019-04-03T22:37:11.686Z,10.93
2019-04-03T22:39:40.279Z,10.82
2019-04-03T22:42:09.422Z,9.96
2019-04-03T22:44:38.081Z,11.15
2019-04-03T22:47:06.694Z,11.15
2019-04-03T22:49:35.237Z,10.00
2019-04-03T22:52:03.788Z,10.50
2019-04-03T22:54:32.377Z,10.00
2019-04-03T22:57:00.943Z,10.80
2019-04-03T22:59:29.610Z,10.40
2019-04-03T23:02:00.761Z,10.32
2019-04-03T23:04:28.441Z,10.85
2019-04-03T23:06:57.039Z,11.45
2019-04-03T23:09:25.606Z,10.95
2019-04-03T23:11:54.147Z,11.10
2019-04-03T23:14:22.746Z,10.53
2019-04-03T23:16:51.304Z,11.38
2019-04-03T23:19:19.795Z,10.28
2019-04-03T23:21:48.431Z,10.65
2019-04-03T23:24:17.832Z,10.18
2019-04-03T23:26:46.387Z,10.80
2019-04-03T23:29:15.002Z,9.95
2019-04-03T23:31:44.953Z,9.33
2019-04-03T23:34:13.762Z,11.10
2019-04-03T23:36:42.402Z,10.40
2019-04-03T23:39:10.950Z,10.53
2019-04-03T23:41:39.513Z,9.53
2019-04-03T23:44:10.738Z,9.30
2019-04-03T23:46:38.377Z,10.93
2019-04-03T23:49:06.928Z,11.90
2019-04-03T23:51:35.519Z,10.40
2019-04-03T23:54:04.181Z,10.98
2019-04-03T23:56:32.755Z,10.85
2019-04-03T23:59:01.317Z,10.85
